sensor_id;sensor_type;location;lat;lon;timestamp;pressure;altitude;pressure_sealevel;temperature
63297;BMP280;49419;51.716;-4.948;2023-06-22T00:00:08;101500.44;;;18.80
63297;BMP280;49419;51.716;-4.948;2023-06-22T00:02:40;101502.09;;;18.75
63297;BMP280;49419;51.716;-4.948;2023-06-22T00:05:08;101506.41;;;18.74
63297;BMP280;49419;51.716;-4.948;2023-06-22T00:07:34;101508.16;;;18.75
63297;BMP280;49419;51.716;-4.948;2023-06-22T00:10:00;101501.16;;;18.71
63297;BMP280;49419;51.716;-4.948;2023-06-22T00:12:26;101509.00;;;18.74
63297;BMP280;49419;51.716;-4.948;2023-06-22T00:14:52;101508.09;;;18.72
63297;BMP280;49419;51.716;-4.948;2023-06-22T00:17:20;101518.56;;;18.75
63297;BMP280;49419;51.716;-4.948;2023-06-22T00:19:47;101517.72;;;18.76
63297;BMP280;49419;51.716;-4.948;2023-06-22T00:22:13;101523.72;;;18.72
63297;BMP280;49419;51.716;-4.948;2023-06-22T00:24:46;101516.66;;;18.64
63297;BMP280;49419;51.716;-4.948;2023-06-22T00:27:12;101521.84;;;18.66
63297;BMP280;49419;51.716;-4.948;2023-06-22T00:29:37;101526.13;;;18.62
63297;BMP280;49419;51.716;-4.948;2023-06-22T00:32:03;101529.50;;;18.57
63297;BMP280;49419;51.716;-4.948;2023-06-22T00:34:32;101531.06;;;18.49
63297;BMP280;49419;51.716;-4.948;2023-06-22T00:37:01;101519.72;;;18.42
63297;BMP280;49419;51.716;-4.948;2023-06-22T00:39:27;101525.78;;;18.44
63297;BMP280;49419;51.716;-4.948;2023-06-22T00:42:01;101528.47;;;18.47
63297;BMP280;49419;51.716;-4.948;2023-06-22T00:44:27;101516.16;;;18.39
63297;BMP280;49419;51.716;-4.948;2023-06-22T00:46:56;101527.47;;;18.41
63297;BMP280;49419;51.716;-4.948;2023-06-22T00:49:34;101521.31;;;18.36
63297;BMP280;49419;51.716;-4.948;2023-06-22T00:51:59;101522.06;;;18.29
63297;BMP280;49419;51.716;-4.948;2023-06-22T00:54:35;101521.19;;;18.29
63297;BMP280;49419;51.716;-4.948;2023-06-22T00:57:03;101528.09;;;18.28
63297;BMP280;49419;51.716;-4.948;2023-06-22T00:59:51;101522.91;;;18.28
63297;BMP280;49419;51.716;-4.948;2023-06-22T01:02:38;101524.59;;;18.28
63297;BMP280;49419;51.716;-4.948;2023-06-22T01:05:16;101529.81;;;18.26
63297;BMP280;49419;51.716;-4.948;2023-06-22T01:07:56;101531.53;;;18.27
63297;BMP280;49419;51.716;-4.948;2023-06-22T01:13:50;101534.88;;;18.20
63297;BMP280;49419;51.716;-4.948;2023-06-22T01:16:30;101534.75;;;18.14
63297;BMP280;49419;51.716;-4.948;2023-06-22T01:19:22;101529.50;;;18.11
63297;BMP280;49419;51.716;-4.948;2023-06-22T01:21:56;101538.22;;;18.15
63297;BMP280;49419;51.716;-4.948;2023-06-22T01:30:10;101552.75;;;18.05
63297;BMP280;49419;51.716;-4.948;2023-06-22T01:32:38;101544.00;;;18.02
63297;BMP280;49419;51.716;-4.948;2023-06-22T01:35:06;101542.13;;;17.95
63297;BMP280;49419;51.716;-4.948;2023-06-22T01:37:42;101541.97;;;17.89
63297;BMP280;49419;51.716;-4.948;2023-06-22T01:40:09;101545.50;;;17.91
63297;BMP280;49419;51.716;-4.948;2023-06-22T01:42:35;101544.63;;;17.91
63297;BMP280;49419;51.716;-4.948;2023-06-22T01:45:04;101537.69;;;17.90
63297;BMP280;49419;51.716;-4.948;2023-06-22T01:47:34;101547.22;;;17.91
63297;BMP280;49419;51.716;-4.948;2023-06-22T01:50:04;101539.28;;;17.83
63297;BMP280;49419;51.716;-4.948;2023-06-22T01:52:31;101547.88;;;17.81
63297;BMP280;49419;51.716;-4.948;2023-06-22T01:55:04;101534.75;;;17.73
63297;BMP280;49419;51.716;-4.948;2023-06-22T01:57:37;101550.28;;;17.72
63297;BMP280;49419;51.716;-4.948;2023-06-22T02:00:10;101542.28;;;17.62
63297;BMP280;49419;51.716;-4.948;2023-06-22T02:03:08;101545.59;;;17.56
63297;BMP280;49419;51.716;-4.948;2023-06-22T02:05:39;101550.88;;;17.59
63297;BMP280;49419;51.716;-4.948;2023-06-22T02:08:30;101556.06;;;17.59
63297;BMP280;49419;51.716;-4.948;2023-06-22T02:10:57;101564.66;;;17.58
63297;BMP280;49419;51.716;-4.948;2023-06-22T02:13:25;101552.38;;;17.51
63297;BMP280;49419;51.716;-4.948;2023-06-22T02:16:03;101559.94;;;17.41
63297;BMP280;49419;51.716;-4.948;2023-06-22T02:18:29;101552.91;;;17.36
63297;BMP280;49419;51.716;-4.948;2023-06-22T02:21:19;101568.59;;;17.40
63297;BMP280;49419;51.716;-4.948;2023-06-22T02:23:47;101567.69;;;17.39
63297;BMP280;49419;51.716;-4.948;2023-06-22T02:26:17;101566.72;;;17.35
63297;BMP280;49419;51.716;-4.948;2023-06-22T02:28:57;101563.19;;;17.31
63297;BMP280;49419;51.716;-4.948;2023-06-22T02:31:22;101562.31;;;17.31
63297;BMP280;49419;51.716;-4.948;2023-06-22T02:33:47;101564.84;;;17.28
63297;BMP280;49419;51.716;-4.948;2023-06-22T02:36:14;101562.09;;;17.22
63297;BMP280;49419;51.716;-4.948;2023-06-22T02:38:43;101568.09;;;17.19
63297;BMP280;49419;51.716;-4.948;2023-06-22T02:41:15;101571.41;;;17.14
63297;BMP280;49419;51.716;-4.948;2023-06-22T02:43:46;101564.16;;;17.03
63297;BMP280;49419;51.716;-4.948;2023-06-22T02:46:13;101564.63;;;16.87
63297;BMP280;49419;51.716;-4.948;2023-06-22T02:48:44;101562.75;;;16.80
63297;BMP280;49419;51.716;-4.948;2023-06-22T02:51:18;101567.88;;;16.78
63297;BMP280;49419;51.716;-4.948;2023-06-22T02:53:44;101564.53;;;16.82
63297;BMP280;49419;51.716;-4.948;2023-06-22T02:56:11;101560.34;;;16.87
63297;BMP280;49419;51.716;-4.948;2023-06-22T02:58:55;101564.72;;;16.90
63297;BMP280;49419;51.716;-4.948;2023-06-22T03:01:27;101568.94;;;16.86
63297;BMP280;49419;51.716;-4.948;2023-06-22T03:03:56;101566.34;;;16.86
63297;BMP280;49419;51.716;-4.948;2023-06-22T03:06:33;101575.91;;;16.89
63297;BMP280;49419;51.716;-4.948;2023-06-22T03:09:21;101574.91;;;16.82
63297;BMP280;49419;51.716;-4.948;2023-06-22T03:11:47;101580.00;;;16.79
63297;BMP280;49419;51.716;-4.948;2023-06-22T03:14:12;101581.75;;;16.80
63297;BMP280;49419;51.716;-4.948;2023-06-22T03:16:41;101573.91;;;16.77
63297;BMP280;49419;51.716;-4.948;2023-06-22T03:19:17;101562.63;;;16.75
63297;BMP280;49419;51.716;-4.948;2023-06-22T03:21:43;101566.13;;;16.77
63297;BMP280;49419;51.716;-4.948;2023-06-22T03:24:11;101567.88;;;16.78
63297;BMP280;49419;51.716;-4.948;2023-06-22T03:26:42;101564.38;;;16.76
63297;BMP280;49419;51.716;-4.948;2023-06-22T03:29:24;101572.13;;;16.76
63297;BMP280;49419;51.716;-4.948;2023-06-22T03:31:50;101560.63;;;16.66
63297;BMP280;49419;51.716;-4.948;2023-06-22T03:34:16;101565.78;;;16.64
63297;BMP280;49419;51.716;-4.948;2023-06-22T03:36:44;101563.81;;;16.56
63297;BMP280;49419;51.716;-4.948;2023-06-22T03:39:10;101576.09;;;16.63
63297;BMP280;49419;51.716;-4.948;2023-06-22T03:41:47;101577.81;;;16.62
63297;BMP280;49419;51.716;-4.948;2023-06-22T03:44:13;101573.47;;;16.61
63297;BMP280;49419;51.716;-4.948;2023-06-22T03:46:39;101574.28;;;16.60
63297;BMP280;49419;51.716;-4.948;2023-06-22T03:49:04;101575.19;;;16.61
63297;BMP280;49419;51.716;-4.948;2023-06-22T03:51:32;101569.09;;;16.59
63297;BMP280;49419;51.716;-4.948;2023-06-22T03:53:58;101571.81;;;16.63
63297;BMP280;49419;51.716;-4.948;2023-06-22T03:56:25;101572.56;;;16.59
63297;BMP280;49419;51.716;-4.948;2023-06-22T03:58:55;101576.94;;;16.62
63297;BMP280;49419;51.716;-4.948;2023-06-22T04:01:21;101584.66;;;16.60
63297;BMP280;49419;51.716;-4.948;2023-06-22T04:03:47;101573.28;;;16.55
63297;BMP280;49419;51.716;-4.948;2023-06-22T04:06:17;101584.59;;;16.57
63297;BMP280;49419;51.716;-4.948;2023-06-22T04:08:46;101599.22;;;16.55
63297;BMP280;49419;51.716;-4.948;2023-06-22T04:11:18;101579.13;;;16.47
63297;BMP280;49419;51.716;-4.948;2023-06-22T04:13:46;101586.13;;;16.51
63297;BMP280;49419;51.716;-4.948;2023-06-22T04:16:11;101587.97;;;16.55
63297;BMP280;49419;51.716;-4.948;2023-06-22T04:18:36;101593.22;;;16.56
63297;BMP280;49419;51.716;-4.948;2023-06-22T04:21:04;101596.69;;;16.57
63297;BMP280;49419;51.716;-4.948;2023-06-22T04:23:30;101573.34;;;16.57
63297;BMP280;49419;51.716;-4.948;2023-06-22T04:25:56;101587.34;;;16.63
63297;BMP280;49419;51.716;-4.948;2023-06-22T04:28:24;101586.44;;;16.61
63297;BMP280;49419;51.716;-4.948;2023-06-22T04:30:55;101584.78;;;16.65
63297;BMP280;49419;51.716;-4.948;2023-06-22T04:33:28;101583.97;;;16.66
63297;BMP280;49419;51.716;-4.948;2023-06-22T04:35:59;101579.66;;;16.66
63297;BMP280;49419;51.716;-4.948;2023-06-22T04:38:47;101572.88;;;16.73
63297;BMP280;49419;51.716;-4.948;2023-06-22T04:41:28;101571.31;;;16.77
63297;BMP280;49419;51.716;-4.948;2023-06-22T04:43:55;101574.00;;;16.82
63297;BMP280;49419;51.716;-4.948;2023-06-22T04:46:34;101583.78;;;16.92
63297;BMP280;49419;51.716;-4.948;2023-06-22T04:49:08;101579.53;;;16.95
63297;BMP280;49419;51.716;-4.948;2023-06-22T04:52:07;101597.03;;;17.04
63297;BMP280;49419;51.716;-4.948;2023-06-22T04:54:34;101593.69;;;17.07
63297;BMP280;49419;51.716;-4.948;2023-06-22T04:57:02;101585.19;;;17.13
63297;BMP280;49419;51.716;-4.948;2023-06-22T04:59:29;101591.38;;;17.18
63297;BMP280;49419;51.716;-4.948;2023-06-22T05:02:11;101588.84;;;17.19
63297;BMP280;49419;51.716;-4.948;2023-06-22T05:04:40;101584.56;;;17.23
63297;BMP280;49419;51.716;-4.948;2023-06-22T05:07:08;101590.78;;;17.28
63297;BMP280;49419;51.716;-4.948;2023-06-22T05:09:41;101582.09;;;17.26
63297;BMP280;49419;51.716;-4.948;2023-06-22T05:12:07;101584.69;;;17.27
63297;BMP280;49419;51.716;-4.948;2023-06-22T05:14:37;101583.13;;;17.34
63297;BMP280;49419;51.716;-4.948;2023-06-22T05:17:09;101579.69;;;17.35
63297;BMP280;49419;51.716;-4.948;2023-06-22T05:20:08;101575.47;;;17.38
63297;BMP280;49419;51.716;-4.948;2023-06-22T05:22:41;101594.72;;;17.49
63297;BMP280;49419;51.716;-4.948;2023-06-22T05:25:09;101588.72;;;17.51
63297;BMP280;49419;51.716;-4.948;2023-06-22T05:27:51;101588.13;;;17.63
63297;BMP280;49419;51.716;-4.948;2023-06-22T05:30:18;101590.06;;;17.71
63297;BMP280;49419;51.716;-4.948;2023-06-22T05:32:54;101593.69;;;17.79
63297;BMP280;49419;51.716;-4.948;2023-06-22T05:35:20;101597.16;;;17.79
63297;BMP280;49419;51.716;-4.948;2023-06-22T05:37:46;101584.16;;;17.78
63297;BMP280;49419;51.716;-4.948;2023-06-22T05:40:13;101590.34;;;17.83
63297;BMP280;49419;51.716;-4.948;2023-06-22T05:42:41;101573.97;;;17.87
63297;BMP280;49419;51.716;-4.948;2023-06-22T05:45:19;101587.19;;;17.99
63297;BMP280;49419;51.716;-4.948;2023-06-22T05:47:50;101578.78;;;18.08
63297;BMP280;49419;51.716;-4.948;2023-06-22T05:50:15;101589.41;;;18.20
63297;BMP280;49419;51.716;-4.948;2023-06-22T05:52:40;101593.94;;;18.30
63297;BMP280;49419;51.716;-4.948;2023-06-22T05:55:20;101585.56;;;18.44
63297;BMP280;49419;51.716;-4.948;2023-06-22T05:57:46;101588.34;;;18.53
63297;BMP280;49419;51.716;-4.948;2023-06-22T06:00:13;101587.59;;;18.59
63297;BMP280;49419;51.716;-4.948;2023-06-22T06:02:44;101591.28;;;18.69
63297;BMP280;49419;51.716;-4.948;2023-06-22T06:05:11;101598.47;;;18.85
63297;BMP280;49419;51.716;-4.948;2023-06-22T06:07:37;101603.09;;;18.98
63297;BMP280;49419;51.716;-4.948;2023-06-22T06:10:06;101587.56;;;19.04
63297;BMP280;49419;51.716;-4.948;2023-06-22T06:12:33;101593.94;;;19.21
63297;BMP280;49419;51.716;-4.948;2023-06-22T06:14:59;101594.16;;;19.34
63297;BMP280;49419;51.716;-4.948;2023-06-22T06:17:24;101595.97;;;19.39
63297;BMP280;49419;51.716;-4.948;2023-06-22T06:19:51;101606.38;;;19.39
63297;BMP280;49419;51.716;-4.948;2023-06-22T06:22:16;101603.69;;;19.33
63297;BMP280;49419;51.716;-4.948;2023-06-22T06:24:46;101604.44;;;19.28
63297;BMP280;49419;51.716;-4.948;2023-06-22T06:27:24;101609.56;;;19.22
63297;BMP280;49419;51.716;-4.948;2023-06-22T06:29:54;101606.16;;;19.25
63297;BMP280;49419;51.716;-4.948;2023-06-22T06:32:23;101608.81;;;19.31
63297;BMP280;49419;51.716;-4.948;2023-06-22T06:34:49;101607.16;;;19.34
63297;BMP280;49419;51.716;-4.948;2023-06-22T06:37:17;101601.91;;;19.31
63297;BMP280;49419;51.716;-4.948;2023-06-22T06:39:44;101607.13;;;19.33
63297;BMP280;49419;51.716;-4.948;2023-06-22T06:42:20;101605.53;;;19.40
63297;BMP280;49419;51.716;-4.948;2023-06-22T06:45:05;101608.16;;;19.42
63297;BMP280;49419;51.716;-4.948;2023-06-22T06:47:33;101609.94;;;19.44
63297;BMP280;49419;51.716;-4.948;2023-06-22T06:50:00;101608.91;;;19.35
63297;BMP280;49419;51.716;-4.948;2023-06-22T06:52:26;101602.91;;;19.39
63297;BMP280;49419;51.716;-4.948;2023-06-22T06:54:59;101601.16;;;19.39
63297;BMP280;49419;51.716;-4.948;2023-06-22T06:57:26;101617.88;;;19.53
63297;BMP280;49419;51.716;-4.948;2023-06-22T06:59:57;101614.34;;;19.50
63297;BMP280;49419;51.716;-4.948;2023-06-22T07:02:35;101614.41;;;19.53
63297;BMP280;49419;51.716;-4.948;2023-06-22T07:05:08;101620.66;;;19.65
63297;BMP280;49419;51.716;-4.948;2023-06-22T07:08:08;101612.09;;;19.72
63297;BMP280;49419;51.716;-4.948;2023-06-22T07:10:33;101627.03;;;19.82
63297;BMP280;49419;51.716;-4.948;2023-06-22T07:12:59;101620.13;;;19.85
63297;BMP280;49419;51.716;-4.948;2023-06-22T07:15:24;101621.13;;;19.95
63297;BMP280;49419;51.716;-4.948;2023-06-22T07:17:51;101626.44;;;20.00
63297;BMP280;49419;51.716;-4.948;2023-06-22T07:20:18;101636.88;;;20.03
63297;BMP280;49419;51.716;-4.948;2023-06-22T07:22:45;101629.06;;;20.03
63297;BMP280;49419;51.716;-4.948;2023-06-22T07:25:13;101635.34;;;20.17
63297;BMP280;49419;51.716;-4.948;2023-06-22T07:27:58;101633.75;;;20.31
63297;BMP280;49419;51.716;-4.948;2023-06-22T07:30:52;101637.44;;;20.46
63297;BMP280;49419;51.716;-4.948;2023-06-22T07:33:17;101629.72;;;20.57
63297;BMP280;49419;51.716;-4.948;2023-06-22T07:35:44;101621.19;;;20.65
63297;BMP280;49419;51.716;-4.948;2023-06-22T07:38:14;101642.19;;;20.80
63297;BMP280;49419;51.716;-4.948;2023-06-22T07:40:49;101637.09;;;20.89
63297;BMP280;49419;51.716;-4.948;2023-06-22T07:43:22;101645.03;;;21.02
63297;BMP280;49419;51.716;-4.948;2023-06-22T07:46:08;101639.97;;;21.18
63297;BMP280;49419;51.716;-4.948;2023-06-22T07:48:38;101648.88;;;21.36
63297;BMP280;49419;51.716;-4.948;2023-06-22T07:51:09;101658.59;;;21.60
63297;BMP280;49419;51.716;-4.948;2023-06-22T07:53:42;101643.94;;;21.75
63297;BMP280;49419;51.716;-4.948;2023-06-22T07:56:10;101639.66;;;21.90
63297;BMP280;49419;51.716;-4.948;2023-06-22T07:58:40;101635.44;;;22.08
63297;BMP280;49419;51.716;-4.948;2023-06-22T08:01:05;101645.09;;;22.27
63297;BMP280;49419;51.716;-4.948;2023-06-22T08:03:44;101645.19;;;22.40
63297;BMP280;49419;51.716;-4.948;2023-06-22T08:06:09;101639.09;;;22.47
63297;BMP280;49419;51.716;-4.948;2023-06-22T08:08:36;101643.47;;;22.50
63297;BMP280;49419;51.716;-4.948;2023-06-22T08:11:02;101658.34;;;22.67
63297;BMP280;49419;51.716;-4.948;2023-06-22T08:13:27;101654.88;;;22.68
63297;BMP280;49419;51.716;-4.948;2023-06-22T08:15:53;101643.47;;;22.50
63297;BMP280;49419;51.716;-4.948;2023-06-22T08:18:19;101662.59;;;22.38
63297;BMP280;49419;51.716;-4.948;2023-06-22T08:20:47;101655.63;;;22.36
63297;BMP280;49419;51.716;-4.948;2023-06-22T08:23:12;101658.28;;;22.42
63297;BMP280;49419;51.716;-4.948;2023-06-22T08:25:38;101656.50;;;22.35
63297;BMP280;49419;51.716;-4.948;2023-06-22T08:28:09;101666.91;;;22.29
63297;BMP280;49419;51.716;-4.948;2023-06-22T08:30:35;101661.66;;;22.25
63297;BMP280;49419;51.716;-4.948;2023-06-22T08:33:00;101666.91;;;22.20
63297;BMP280;49419;51.716;-4.948;2023-06-22T08:35:26;101673.81;;;22.12
63297;BMP280;49419;51.716;-4.948;2023-06-22T08:37:53;101663.28;;;22.03
63297;BMP280;49419;51.716;-4.948;2023-06-22T08:40:24;101674.56;;;21.98
63297;BMP280;49419;51.716;-4.948;2023-06-22T08:42:52;101666.72;;;21.99
63297;BMP280;49419;51.716;-4.948;2023-06-22T08:45:23;101665.88;;;21.99
63297;BMP280;49419;51.716;-4.948;2023-06-22T08:47:48;101682.41;;;22.02
63297;BMP280;49419;51.716;-4.948;2023-06-22T08:50:26;101669.41;;;22.08
63297;BMP280;49419;51.716;-4.948;2023-06-22T08:52:52;101672.88;;;22.06
63297;BMP280;49419;51.716;-4.948;2023-06-22T08:55:17;101671.19;;;22.11
63297;BMP280;49419;51.716;-4.948;2023-06-22T08:57:43;101666.84;;;22.17
63297;BMP280;49419;51.716;-4.948;2023-06-22T09:00:11;101669.50;;;22.23
63297;BMP280;49419;51.716;-4.948;2023-06-22T09:02:45;101670.41;;;22.31
63297;BMP280;49419;51.716;-4.948;2023-06-22T09:05:11;101671.34;;;22.43
63297;BMP280;49419;51.716;-4.948;2023-06-22T09:07:36;101674.88;;;22.57
63297;BMP280;49419;51.716;-4.948;2023-06-22T09:10:04;101665.34;;;22.74
63297;BMP280;49419;51.716;-4.948;2023-06-22T09:12:31;101666.28;;;22.88
63297;BMP280;49419;51.716;-4.948;2023-06-22T09:15:00;101667.22;;;23.01
63297;BMP280;49419;51.716;-4.948;2023-06-22T09:17:42;101660.22;;;23.05
63297;BMP280;49419;51.716;-4.948;2023-06-22T09:20:39;101656.75;;;23.16
63297;BMP280;49419;51.716;-4.948;2023-06-22T09:23:13;101662.88;;;23.25
63297;BMP280;49419;51.716;-4.948;2023-06-22T09:25:40;101663.72;;;23.22
63297;BMP280;49419;51.716;-4.948;2023-06-22T09:28:06;101666.38;;;23.23
63297;BMP280;49419;51.716;-4.948;2023-06-22T09:30:31;101659.38;;;23.32
63297;BMP280;49419;51.716;-4.948;2023-06-22T09:32:57;101667.25;;;23.44
63297;BMP280;49419;51.716;-4.948;2023-06-22T09:35:23;101667.22;;;23.38
63297;BMP280;49419;51.716;-4.948;2023-06-22T09:37:48;101667.22;;;23.29
63297;BMP280;49419;51.716;-4.948;2023-06-22T09:40:14;101655.00;;;23.11
63297;BMP280;49419;51.716;-4.948;2023-06-22T09:42:50;101659.31;;;22.98
63297;BMP280;49419;51.716;-4.948;2023-06-22T09:45:16;101666.28;;;22.89
63297;BMP280;49419;51.716;-4.948;2023-06-22T09:47:44;101661.94;;;22.88
63297;BMP280;49419;51.716;-4.948;2023-06-22T09:50:15;101649.75;;;22.99
63297;BMP280;49419;51.716;-4.948;2023-06-22T09:52:41;101656.72;;;23.18
63297;BMP280;49419;51.716;-4.948;2023-06-22T09:55:12;101663.75;;;23.30
63297;BMP280;49419;51.716;-4.948;2023-06-22T09:57:37;101666.34;;;23.32
63297;BMP280;49419;51.716;-4.948;2023-06-22T10:00:11;101661.09;;;23.20
63297;BMP280;49419;51.716;-4.948;2023-06-22T10:02:47;101656.72;;;23.06
63297;BMP280;49419;51.716;-4.948;2023-06-22T10:05:21;101654.97;;;23.08
63297;BMP280;49419;51.716;-4.948;2023-06-22T10:08:00;101661.09;;;23.02
63297;BMP280;49419;51.716;-4.948;2023-06-22T10:10:27;101650.63;;;22.96
63297;BMP280;49419;51.716;-4.948;2023-06-22T10:12:57;101655.00;;;23.11
63297;BMP280;49419;51.716;-4.948;2023-06-22T10:15:23;101640.16;;;23.02
63297;BMP280;49419;51.716;-4.948;2023-06-22T10:17:49;101636.66;;;23.09
63297;BMP280;49419;51.716;-4.948;2023-06-22T10:20:15;101648.88;;;23.29
63297;BMP280;49419;51.716;-4.948;2023-06-22T10:22:49;101643.66;;;23.32
63297;BMP280;49419;51.716;-4.948;2023-06-22T10:25:17;101643.69;;;23.71
63297;BMP280;49419;51.716;-4.948;2023-06-22T10:27:43;101648.81;;;24.14
63297;BMP280;49419;51.716;-4.948;2023-06-22T10:30:13;101634.72;;;24.47
63297;BMP280;49419;51.716;-4.948;2023-06-22T10:32:48;101628.59;;;24.50
63297;BMP280;49419;51.716;-4.948;2023-06-22T10:35:14;101644.41;;;24.29
63297;BMP280;49419;51.716;-4.948;2023-06-22T10:40:43;101661.09;;;23.92
63297;BMP280;49419;51.716;-4.948;2023-06-22T10:43:11;101651.47;;;23.97
63297;BMP280;49419;51.716;-4.948;2023-06-22T10:45:37;101655.75;;;24.32
63297;BMP280;49419;51.716;-4.948;2023-06-22T10:48:06;101644.25;;;24.64
63297;BMP280;49419;51.716;-4.948;2023-06-22T10:50:32;101658.19;;;24.78
63297;BMP280;49419;51.716;-4.948;2023-06-22T10:52:57;101658.25;;;24.60
63297;BMP280;49419;51.716;-4.948;2023-06-22T10:55:25;101666.19;;;24.44
63297;BMP280;49419;51.716;-4.948;2023-06-22T10:57:53;101675.03;;;24.22
63297;BMP280;49419;51.716;-4.948;2023-06-22T11:00:27;101663.66;;;24.28
63297;BMP280;49419;51.716;-4.948;2023-06-22T11:02:53;101661.84;;;24.45
63297;BMP280;49419;51.716;-4.948;2023-06-22T11:05:18;101656.53;;;24.59
63297;BMP280;49419;51.716;-4.948;2023-06-22T11:07:46;101663.41;;;24.81
63297;BMP280;49419;51.716;-4.948;2023-06-22T11:10:15;101657.25;;;24.89
63297;BMP280;49419;51.716;-4.948;2023-06-22T11:12:43;101662.44;;;24.97
63297;BMP280;49419;51.716;-4.948;2023-06-22T11:17:55;101669.38;;;25.08
63297;BMP280;49419;51.716;-4.948;2023-06-22T11:20:27;101668.44;;;25.14
63297;BMP280;49419;51.716;-4.948;2023-06-22T11:22:53;101671.09;;;25.17
63297;BMP280;49419;51.716;-4.948;2023-06-22T11:25:18;101665.88;;;25.09
63297;BMP280;49419;51.716;-4.948;2023-06-22T11:27:44;101673.78;;;25.09
63297;BMP280;49419;51.716;-4.948;2023-06-22T11:30:10;101665.03;;;25.07
63297;BMP280;49419;51.716;-4.948;2023-06-22T11:32:36;101667.63;;;25.10
63297;BMP280;49419;51.716;-4.948;2023-06-22T11:35:01;101664.09;;;25.13
63297;BMP280;49419;51.716;-4.948;2023-06-22T11:37:27;101665.84;;;25.12
63297;BMP280;49419;51.716;-4.948;2023-06-22T11:39:52;101671.94;;;25.17
63297;BMP280;49419;51.716;-4.948;2023-06-22T11:42:20;101675.44;;;25.18
63297;BMP280;49419;51.716;-4.948;2023-06-22T11:44:54;101675.41;;;25.20
63297;BMP280;49419;51.716;-4.948;2023-06-22T11:47:22;101669.22;;;25.27
63297;BMP280;49419;51.716;-4.948;2023-06-22T11:49:47;101681.44;;;25.33
63297;BMP280;49419;51.716;-4.948;2023-06-22T11:52:14;101681.44;;;25.34
63297;BMP280;49419;51.716;-4.948;2023-06-22T11:54:39;101684.97;;;25.33
63297;BMP280;49419;51.716;-4.948;2023-06-22T11:57:06;101673.63;;;25.28
63297;BMP280;49419;51.716;-4.948;2023-06-22T11:59:48;101686.72;;;25.30
63297;BMP280;49419;51.716;-4.948;2023-06-22T12:02:13;101680.53;;;25.38
63297;BMP280;49419;51.716;-4.948;2023-06-22T12:04:38;101672.63;;;25.40
63297;BMP280;49419;51.716;-4.948;2023-06-22T12:07:04;101680.53;;;25.38
63297;BMP280;49419;51.716;-4.948;2023-06-22T12:09:29;101681.44;;;25.34
63297;BMP280;49419;51.716;-4.948;2023-06-22T12:11:57;101678.84;;;25.31
63297;BMP280;49419;51.716;-4.948;2023-06-22T12:14:34;101684.94;;;25.36
63297;BMP280;49419;51.716;-4.948;2023-06-22T12:17:00;101693.69;;;25.35
63297;BMP280;49419;51.716;-4.948;2023-06-22T12:19:25;101678.88;;;25.28
63297;BMP280;49419;51.716;-4.948;2023-06-22T12:21:53;101682.38;;;25.27
63297;BMP280;49419;51.716;-4.948;2023-06-22T12:24:18;101689.38;;;25.28
63297;BMP280;49419;51.716;-4.948;2023-06-22T12:26:46;101686.72;;;25.30
63297;BMP280;49419;51.716;-4.948;2023-06-22T12:29:12;101681.50;;;25.27
63297;BMP280;49419;51.716;-4.948;2023-06-22T12:31:42;101671.00;;;25.27
63297;BMP280;49419;51.716;-4.948;2023-06-22T12:34:09;101678.84;;;25.31
63297;BMP280;49419;51.716;-4.948;2023-06-22T12:36:34;101677.94;;;25.32
63297;BMP280;49419;51.716;-4.948;2023-06-22T12:39:12;101679.63;;;25.42
63297;BMP280;49419;51.716;-4.948;2023-06-22T12:41:44;101677.81;;;25.49
63297;BMP280;49419;51.716;-4.948;2023-06-22T12:44:13;101678.69;;;25.55
63297;BMP280;49419;51.716;-4.948;2023-06-22T12:46:38;101675.13;;;25.62
63297;BMP280;49419;51.716;-4.948;2023-06-22T12:49:11;101683.84;;;25.65
63297;BMP280;49419;51.716;-4.948;2023-06-22T12:51:43;101673.28;;;25.70
63297;BMP280;49419;51.716;-4.948;2023-06-22T12:54:11;101663.47;;;25.86
63297;BMP280;49419;51.716;-4.948;2023-06-22T12:56:37;101663.41;;;25.92
63297;BMP280;49419;51.716;-4.948;2023-06-22T12:59:04;101674.66;;;26.06
63297;BMP280;49419;51.716;-4.948;2023-06-22T13:01:31;101670.22;;;26.11
63297;BMP280;49419;51.716;-4.948;2023-06-22T13:03:58;101671.06;;;26.16
63297;BMP280;49419;51.716;-4.948;2023-06-22T13:06:27;101671.06;;;26.19
63297;BMP280;49419;51.716;-4.948;2023-06-22T13:08:55;101670.06;;;26.29
63297;BMP280;49419;51.716;-4.948;2023-06-22T13:11:21;101660.22;;;26.46
63297;BMP280;49419;51.716;-4.948;2023-06-22T13:13:46;101668.72;;;26.64
63297;BMP280;49419;51.716;-4.948;2023-06-22T13:16:15;101665.97;;;26.71
63297;BMP280;49419;51.716;-4.948;2023-06-22T13:18:41;101657.06;;;26.84
63297;BMP280;49419;51.716;-4.948;2023-06-22T13:21:06;101660.28;;;27.05
63297;BMP280;49419;51.716;-4.948;2023-06-22T13:23:44;101660.94;;;27.17
63297;BMP280;49419;51.716;-4.948;2023-06-22T13:26:11;101665.03;;;27.38
63297;BMP280;49419;51.716;-4.948;2023-06-22T13:28:39;101674.56;;;27.46
63297;BMP280;49419;51.716;-4.948;2023-06-22T13:31:07;101672.06;;;27.36
63297;BMP280;49419;51.716;-4.948;2023-06-22T13:33:33;101675.56;;;27.38
63297;BMP280;49419;51.716;-4.948;2023-06-22T13:36:05;101676.88;;;27.65
63297;BMP280;49419;51.716;-4.948;2023-06-22T13:38:36;101675.34;;;28.00
63297;BMP280;49419;51.716;-4.948;2023-06-22T13:41:04;101675.03;;;28.18
63297;BMP280;49419;51.716;-4.948;2023-06-22T13:43:31;101669.78;;;28.16
63297;BMP280;49419;51.716;-4.948;2023-06-22T13:45:57;101673.34;;;28.14
63297;BMP280;49419;51.716;-4.948;2023-06-22T13:48:23;101675.81;;;28.23
63297;BMP280;49419;51.716;-4.948;2023-06-22T13:50:56;101668.59;;;28.31
63297;BMP280;49419;51.716;-4.948;2023-06-22T13:53:22;101672.19;;;28.70
63297;BMP280;49419;51.716;-4.948;2023-06-22T13:55:49;101667.28;;;29.66
63297;BMP280;49419;51.716;-4.948;2023-06-22T13:58:15;101661.44;;;31.06
63297;BMP280;49419;51.716;-4.948;2023-06-22T14:00:41;101654.22;;;32.37
63297;BMP280;49419;51.716;-4.948;2023-06-22T14:03:07;101651.81;;;33.82
63297;BMP280;49419;51.716;-4.948;2023-06-22T14:05:33;101653.19;;;35.04
63297;BMP280;49419;51.716;-4.948;2023-06-22T14:07:58;101660.91;;;35.97
63297;BMP280;49419;51.716;-4.948;2023-06-22T14:10:24;101662.94;;;36.26
63297;BMP280;49419;51.716;-4.948;2023-06-22T14:12:52;101663.25;;;36.03